createdAt,value
2023-01-13T00:02:18.299Z,91.75
2023-01-13T00:04:49.907Z,91.90
2023-01-13T00:07:19.472Z,92.76
2023-01-13T00:09:52.126Z,93.08
2023-01-13T00:12:20.735Z,93.27
2023-01-13T00:14:52.464Z,92.99
2023-01-13T00:17:21.354Z,92.58
2023-01-13T00:19:53.130Z,92.45
2023-01-13T00:22:23.481Z,92.40
2023-01-13T00:24:54.699Z,92.74
2023-01-13T00:27:26.896Z,92.82
2023-01-13T00:30:01.281Z,92.90
2023-01-13T00:32:30.072Z,92.83
2023-01-13T00:35:01.436Z,93.31
2023-01-13T00:37:30.053Z,93.53
2023-01-13T00:40:03.377Z,93.61
2023-01-13T00:43:13.126Z,93.43
2023-01-13T00:45:44.304Z,93.22
2023-01-13T00:48:15.516Z,93.39
2023-01-13T00:51:04.433Z,93.31
2023-01-13T00:53:41.686Z,93.31
2023-01-13T00:56:24.355Z,92.95
2023-01-13T00:58:59.137Z,92.90
2023-01-13T01:01:28.663Z,92.82
2023-01-13T01:03:57.502Z,92.62
2023-01-13T01:06:27.613Z,92.49
2023-01-13T01:08:57.637Z,92.44
2023-01-13T01:11:29.437Z,92.86
2023-01-13T01:14:03.750Z,93.03
2023-01-13T01:16:35.978Z,93.02
2023-01-13T01:19:05.300Z,92.94
2023-01-13T01:21:34.960Z,93.02
2023-01-13T01:24:04.665Z,93.14
2023-01-13T01:26:35.015Z,93.19
2023-01-13T01:29:05.915Z,93.26
2023-01-13T01:31:35.562Z,93.26
2023-01-13T01:34:04.368Z,93.24
2023-01-13T01:36:36.060Z,93.14
2023-01-13T01:39:05.729Z,93.18
2023-01-13T01:41:37.250Z,93.29
2023-01-13T01:44:29.052Z,93.50
2023-01-13T01:50:32.080Z,93.15
2023-01-13T01:53:12.571Z,92.84
2023-01-13T01:55:42.455Z,92.74
2023-01-13T01:58:18.625Z,92.79
2023-01-13T02:00:49.851Z,92.59
2023-01-13T02:03:20.483Z,92.82
2023-01-13T02:05:50.270Z,92.82
2023-01-13T02:08:20.410Z,92.86
2023-01-13T02:10:53.988Z,92.51
2023-01-13T02:13:23.613Z,92.35
2023-01-13T02:16:20.458Z,92.27
2023-01-13T02:19:25.798Z,92.44
2023-01-13T02:22:26.970Z,92.68
2023-01-13T02:25:37.037Z,92.33
2023-01-13T02:29:09.512Z,92.17
2023-01-13T02:31:50.498Z,92.37
2023-01-13T02:34:48.182Z,92.85
2023-01-13T02:37:32.114Z,93.19
2023-01-13T02:40:08.929Z,93.07
2023-01-13T02:43:10.199Z,92.64
2023-01-13T02:45:49.975Z,92.53
2023-01-13T02:48:23.146Z,93.15
2023-01-13T02:51:04.889Z,93.51
2023-01-13T02:53:53.462Z,93.92
2023-01-13T02:56:25.320Z,93.70
2023-01-13T02:59:00.044Z,93.28
2023-01-13T03:01:29.241Z,92.92
2023-01-13T03:04:02.542Z,92.62
2023-01-13T03:07:04.609Z,92.60
2023-01-13T03:09:59.027Z,92.49
2023-01-13T03:12:30.419Z,92.43
2023-01-13T03:15:40.563Z,92.62
2023-01-13T03:18:27.598Z,93.17
2023-01-13T03:24:24.865Z,93.98
2023-01-13T03:27:05.050Z,93.59
2023-01-13T03:29:41.616Z,93.60
2023-01-13T03:32:40.503Z,93.69
2023-01-13T03:35:24.396Z,94.01
2023-01-13T03:38:06.638Z,94.21
2023-01-13T03:40:44.494Z,94.31
2023-01-13T03:43:39.285Z,94.09
2023-01-13T03:46:17.009Z,93.90
2023-01-13T03:48:51.344Z,93.87
2023-01-13T03:51:24.915Z,93.96
2023-01-13T03:54:01.127Z,94.15
2023-01-13T03:56:38.913Z,94.12
2023-01-13T03:59:14.674Z,94.19
2023-01-13T04:02:01.873Z,94.21
2023-01-13T04:04:45.451Z,94.28
2023-01-13T04:07:51.915Z,94.01
2023-01-13T04:10:29.172Z,94.34
2023-01-13T04:13:08.249Z,94.24
2023-01-13T04:15:40.470Z,94.28
2023-01-13T04:18:16.905Z,93.69
2023-01-13T04:20:47.637Z,93.51
2023-01-13T04:23:20.401Z,93.68
2023-01-13T04:25:52.732Z,93.64
2023-01-13T04:28:24.067Z,93.41
2023-01-13T04:30:55.183Z,93.29
2023-01-13T04:33:23.922Z,93.35
2023-01-13T04:35:53.021Z,93.46
2023-01-13T04:38:24.234Z,93.48
2023-01-13T04:40:52.887Z,93.74
2023-01-13T04:43:24.438Z,93.57
2023-01-13T04:45:53.681Z,93.56
2023-01-13T04:48:24.843Z,93.45
2023-01-13T04:50:56.569Z,93.53
2023-01-13T04:53:26.192Z,93.50
2023-01-13T04:55:56.297Z,93.58
2023-01-13T04:58:25.103Z,93.54
2023-01-13T05:00:57.270Z,93.46
2023-01-13T05:03:26.978Z,93.27
2023-01-13T05:05:55.925Z,93.38
2023-01-13T05:08:24.581Z,93.35
2023-01-13T05:10:54.461Z,93.20
2023-01-13T05:13:41.943Z,93.51
2023-01-13T05:16:31.246Z,93.66
2023-01-13T05:19:03.146Z,93.66
2023-01-13T05:21:50.192Z,93.31
2023-01-13T05:24:38.943Z,93.67
2023-01-13T05:27:08.588Z,94.07
2023-01-13T05:29:37.359Z,93.77
2023-01-13T05:32:08.511Z,93.57
2023-01-13T05:34:42.457Z,93.18
2023-01-13T05:37:13.215Z,93.22
2023-01-13T05:40:00.868Z,93.62
2023-01-13T05:42:48.081Z,93.61
2023-01-13T05:45:18.871Z,93.64
2023-01-13T05:47:47.975Z,93.65
2023-01-13T05:50:20.674Z,93.57
2023-01-13T05:52:51.926Z,93.73
2023-01-13T05:55:23.499Z,93.58
2023-01-13T05:57:52.929Z,93.40
2023-01-13T06:00:24.956Z,93.37
2023-01-13T06:02:56.810Z,93.58
2023-01-13T06:05:27.206Z,93.64
2023-01-13T06:08:03.370Z,93.29
2023-01-13T06:10:32.469Z,93.17
2023-01-13T06:13:01.693Z,93.38
2023-01-13T06:15:30.401Z,93.49
2023-01-13T06:18:02.735Z,93.61
2023-01-13T06:20:32.584Z,93.35
2023-01-13T06:23:03.229Z,93.25
2023-01-13T06:25:41.375Z,93.17
2023-01-13T06:28:13.031Z,93.17
2023-01-13T06:30:49.250Z,93.04
2023-01-13T06:33:24.404Z,93.05
2023-01-13T06:35:58.722Z,93.28
2023-01-13T06:38:35.285Z,93.30
2023-01-13T06:41:06.511Z,93.11
2023-01-13T06:43:35.827Z,93.02
2023-01-13T06:46:05.765Z,92.96
2023-01-13T06:48:37.630Z,93.08
2023-01-13T06:51:10.619Z,93.18
2023-01-13T06:53:41.312Z,93.38
2023-01-13T06:56:09.925Z,93.47
2023-01-13T06:58:38.828Z,93.57
2023-01-13T07:01:10.277Z,93.37
2023-01-13T07:03:42.031Z,93.37
2023-01-13T07:06:13.192Z,93.25
2023-01-13T07:08:42.428Z,92.92
2023-01-13T07:11:14.598Z,92.81
2023-01-13T07:14:02.114Z,92.98
2023-01-13T07:16:30.702Z,93.10
2023-01-13T07:19:01.602Z,92.87
2023-01-13T07:21:30.355Z,92.64
2023-01-13T07:23:59.147Z,92.81
2023-01-13T07:26:27.889Z,92.88
2023-01-13T07:28:59.140Z,92.57
2023-01-13T07:31:34.546Z,92.21
2023-01-13T07:34:07.933Z,91.96
2023-01-13T07:36:36.795Z,92.28
2023-01-13T07:39:05.873Z,92.07
2023-01-13T07:41:52.940Z,91.74
2023-01-13T07:44:22.152Z,91.77
2023-01-13T07:46:51.202Z,92.02
2023-01-13T07:49:22.534Z,92.30
2023-01-13T07:51:51.125Z,92.28
2023-01-13T07:54:25.547Z,91.69
2023-01-13T07:57:00.563Z,91.91
2023-01-13T07:59:29.863Z,91.61
2023-01-13T08:01:58.689Z,91.49
2023-01-13T08:04:30.058Z,91.17
2023-01-13T08:06:58.801Z,90.64
2023-01-13T08:09:30.245Z,90.97
2023-01-13T08:12:18.049Z,90.64
2023-01-13T08:14:46.711Z,90.51
2023-01-13T08:17:15.720Z,90.74
2023-01-13T08:19:44.272Z,91.26
2023-01-13T08:22:13.231Z,90.60
2023-01-13T08:24:41.791Z,90.05
2023-01-13T08:27:10.999Z,90.99
2023-01-13T08:29:39.509Z,91.83
2023-01-13T08:32:08.077Z,90.37
2023-01-13T08:34:36.577Z,89.82
2023-01-13T08:37:05.465Z,90.54
2023-01-13T08:39:33.884Z,90.76
2023-01-13T08:42:04.078Z,90.72
2023-01-13T08:44:33.556Z,90.32
2023-01-13T08:47:02.729Z,89.90
2023-01-13T08:49:33.267Z,89.22
2023-01-13T08:52:02.990Z,88.76
2023-01-13T08:54:32.275Z,89.52
2023-01-13T08:57:04.070Z,89.43
2023-01-13T08:59:34.240Z,89.46
2023-01-13T09:02:17.791Z,89.23
2023-01-13T09:04:51.230Z,89.22
2023-01-13T09:07:21.096Z,87.86
2023-01-13T09:09:49.653Z,88.69
2023-01-13T09:12:37.353Z,88.03
2023-01-13T09:15:10.858Z,88.25
2023-01-13T09:17:39.775Z,87.96
2023-01-13T09:20:08.940Z,87.67
2023-01-13T09:22:40.916Z,87.13
2023-01-13T09:25:10.394Z,86.28
2023-01-13T09:27:40.144Z,85.87
2023-01-13T09:30:09.208Z,85.92
2023-01-13T09:32:38.666Z,85.70
2023-01-13T09:35:08.906Z,85.62
2023-01-13T09:37:39.993Z,85.56
2023-01-13T09:40:18.329Z,84.62
2023-01-13T09:43:13.363Z,84.43
2023-01-13T09:45:51.847Z,83.75
2023-01-13T09:48:25.106Z,83.65
2023-01-13T09:51:09.794Z,83.06
2023-01-13T09:53:45.082Z,83.28
2023-01-13T09:56:13.565Z,83.08
2023-01-13T09:58:42.434Z,82.43
2023-01-13T10:01:21.149Z,82.92
2023-01-13T10:03:51.277Z,82.93
2023-01-13T10:06:24.799Z,83.14
2023-01-13T10:08:56.304Z,83.57
2023-01-13T10:11:49.678Z,83.52
2023-01-13T10:14:27.186Z,82.54
2023-01-13T10:17:22.094Z,82.19
2023-01-13T10:19:59.785Z,81.44
2023-01-13T10:23:06.054Z,81.32
2023-01-13T10:25:44.840Z,81.68
2023-01-13T10:28:18.458Z,81.33
2023-01-13T10:30:48.284Z,81.19
2023-01-13T10:33:21.453Z,81.33
2023-01-13T10:36:04.360Z,81.60
2023-01-13T10:38:51.025Z,81.43
2023-01-13T10:41:27.275Z,81.35
2023-01-13T10:44:09.818Z,81.32
2023-01-13T10:46:53.307Z,81.58
2023-01-13T10:49:40.991Z,81.70
2023-01-13T10:52:27.572Z,81.51
2023-01-13T10:54:56.872Z,81.24
2023-01-13T10:57:27.664Z,81.09
2023-01-13T10:59:56.540Z,80.95
2023-01-13T11:02:36.251Z,80.69
2023-01-13T11:05:23.717Z,80.04
2023-01-13T11:07:55.160Z,79.43
2023-01-13T11:10:30.219Z,79.25
2023-01-13T11:13:29.858Z,78.78
2023-01-13T11:16:09.306Z,77.83
2023-01-13T11:19:12.378Z,77.96
2023-01-13T11:21:55.313Z,76.38
2023-01-13T11:24:36.594Z,76.71
2023-01-13T11:27:14.202Z,76.60
2023-01-13T11:30:12.256Z,75.00
2023-01-13T11:33:24.267Z,74.09
2023-01-13T11:36:20.693Z,72.26
2023-01-13T11:39:03.377Z,71.95
2023-01-13T11:42:08.698Z,72.30
2023-01-13T11:44:49.695Z,72.30
2023-01-13T11:47:28.124Z,71.92
2023-01-13T11:49:57.500Z,72.81
2023-01-13T11:52:48.130Z,73.15
2023-01-13T11:55:40.116Z,73.29
2023-01-13T11:58:21.106Z,72.72
2023-01-13T12:01:25.445Z,71.73
2023-01-13T12:04:21.810Z,72.30
2023-01-13T12:07:07.689Z,71.96
2023-01-13T12:10:03.759Z,71.02
2023-01-13T12:12:33.977Z,70.75
2023-01-13T12:15:24.837Z,71.05
2023-01-13T12:18:21.543Z,70.48
2023-01-13T12:21:09.543Z,69.89
2023-01-13T12:23:46.933Z,69.66
2023-01-13T12:26:17.052Z,69.40
2023-01-13T12:28:45.586Z,69.71
2023-01-13T12:31:19.047Z,70.01
2023-01-13T12:33:59.740Z,70.17
2023-01-13T12:36:35.219Z,70.71
2023-01-13T12:39:20.221Z,70.48
2023-01-13T12:42:24.419Z,70.12
2023-01-13T12:45:13.112Z,70.86
2023-01-13T12:47:47.023Z,71.26
2023-01-13T12:50:28.265Z,70.02
2023-01-13T12:53:21.870Z,69.27
2023-01-13T12:55:53.992Z,68.96
2023-01-13T12:58:29.220Z,69.53
2023-01-13T13:01:07.061Z,69.93
2023-01-13T13:03:36.919Z,69.66
2023-01-13T13:06:24.067Z,69.97
2023-01-13T13:09:28.357Z,69.49
2023-01-13T13:12:03.326Z,69.32
2023-01-13T13:14:55.025Z,70.28
2023-01-13T13:17:30.130Z,69.01
2023-01-13T13:20:01.601Z,69.46
2023-01-13T13:22:43.680Z,69.82
2023-01-13T13:25:24.617Z,70.88
2023-01-13T13:28:16.643Z,70.98
2023-01-13T13:30:56.790Z,72.11
2023-01-13T13:33:50.516Z,71.57
2023-01-13T13:36:44.999Z,72.26
2023-01-13T13:39:43.204Z,72.68
2023-01-13T13:42:36.162Z,72.31
2023-01-13T13:45:45.800Z,72.86
2023-01-13T13:48:27.853Z,73.24
2023-01-13T13:51:03.101Z,73.76
2023-01-13T13:53:41.971Z,73.86
2023-01-13T13:56:21.000Z,73.82
2023-01-13T13:58:50.513Z,73.73
2023-01-13T14:01:28.814Z,73.66
2023-01-13T14:04:20.253Z,74.18
2023-01-13T14:06:56.212Z,73.86
2023-01-13T14:09:29.158Z,74.05
2023-01-13T14:12:03.184Z,75.18
2023-01-13T14:14:31.670Z,75.03
2023-01-13T14:17:00.181Z,74.50
2023-01-13T14:19:33.389Z,74.75
2023-01-13T14:22:07.191Z,75.22
2023-01-13T14:24:49.457Z,75.40
2023-01-13T14:27:21.640Z,75.79
2023-01-13T14:29:58.317Z,76.07
2023-01-13T14:32:36.657Z,76.08
2023-01-13T14:35:07.618Z,75.69
2023-01-13T14:37:42.048Z,75.76
2023-01-13T14:40:33.676Z,75.80
2023-01-13T14:43:04.408Z,75.72
2023-01-13T14:45:33.654Z,76.35
2023-01-13T14:48:10.058Z,77.02
2023-01-13T14:50:43.775Z,77.08
2023-01-13T14:53:48.363Z,77.19
2023-01-13T14:57:10.211Z,76.84
2023-01-13T15:00:14.892Z,77.59
2023-01-13T15:02:49.030Z,78.21
2023-01-13T15:05:24.003Z,78.24
2023-01-13T15:08:02.719Z,78.40
2023-01-13T15:11:02.134Z,78.18
2023-01-13T15:13:52.873Z,78.46
2023-01-13T15:16:26.996Z,78.81
2023-01-13T15:18:57.008Z,79.06
2023-01-13T15:21:26.270Z,79.42
2023-01-13T15:24:00.741Z,79.54
2023-01-13T15:26:34.111Z,79.43
2023-01-13T15:29:05.446Z,79.59
2023-01-13T15:31:42.558Z,80.02
2023-01-13T15:34:12.211Z,80.36
2023-01-13T15:36:45.067Z,80.75
2023-01-13T15:39:17.104Z,80.77
2023-01-13T15:42:10.342Z,80.65
2023-01-13T15:45:05.580Z,80.95
2023-01-13T15:47:35.160Z,81.48
2023-01-13T15:50:07.138Z,81.97
2023-01-13T15:52:36.556Z,82.06
2023-01-13T15:55:09.186Z,82.12
2023-01-13T15:57:46.340Z,82.19
2023-01-13T16:00:22.004Z,82.30
2023-01-13T16:02:51.881Z,82.58
2023-01-13T16:05:24.139Z,83.35
2023-01-13T16:07:56.821Z,83.51
2023-01-13T16:10:28.245Z,83.45
2023-01-13T16:12:59.537Z,84.44
2023-01-13T16:15:28.789Z,84.30
2023-01-13T16:18:00.070Z,84.39
2023-01-13T16:20:30.264Z,84.66
2023-01-13T16:22:59.371Z,85.16
2023-01-13T16:25:31.860Z,86.07
2023-01-13T16:28:04.614Z,86.70
2023-01-13T16:30:36.307Z,86.26
2023-01-13T16:33:08.471Z,86.60
2023-01-13T16:35:43.840Z,87.44
2023-01-13T16:38:29.634Z,88.44
2023-01-13T16:41:01.593Z,88.39
2023-01-13T16:43:32.316Z,88.80
2023-01-13T16:46:01.732Z,89.10
2023-01-13T16:48:31.023Z,89.39
2023-01-13T16:51:01.956Z,88.97
2023-01-13T16:53:31.249Z,89.43
2023-01-13T16:56:02.674Z,89.60
2023-01-13T16:58:37.667Z,90.00
2023-01-13T17:01:06.947Z,90.73
2023-01-13T17:03:49.354Z,90.59
2023-01-13T17:06:29.665Z,91.10
2023-01-13T17:09:08.577Z,90.84
2023-01-13T17:11:40.854Z,91.16
2023-01-13T17:14:19.157Z,91.24
2023-01-13T17:16:54.727Z,91.22
2023-01-13T17:19:26.389Z,91.80
2023-01-13T17:22:03.190Z,91.46
2023-01-13T17:24:37.789Z,91.40
2023-01-13T17:27:08.984Z,92.22
2023-01-13T17:29:40.064Z,92.83
2023-01-13T17:32:14.897Z,92.97
2023-01-13T17:34:50.295Z,92.77
2023-01-13T17:37:23.852Z,93.39
2023-01-13T17:39:55.929Z,93.24
2023-01-13T17:42:28.027Z,94.10
2023-01-13T17:44:57.231Z,95.01
2023-01-13T17:47:32.121Z,94.68
2023-01-13T17:50:01.501Z,94.76
2023-01-13T17:52:44.369Z,95.30
2023-01-13T17:55:17.489Z,95.44
2023-01-13T17:57:48.840Z,95.49
2023-01-13T18:00:18.648Z,95.72
2023-01-13T18:02:54.674Z,95.41
2023-01-13T18:05:26.564Z,95.75
2023-01-13T18:07:55.770Z,96.01
2023-01-13T18:10:25.118Z,96.19
2023-01-13T18:12:54.244Z,96.24
2023-01-13T18:15:23.347Z,96.46
2023-01-13T18:17:52.570Z,96.60
2023-01-13T18:20:40.666Z,96.79
2023-01-13T18:23:37.079Z,96.71
2023-01-13T18:26:39.242Z,96.77
2023-01-13T18:29:08.464Z,97.02
2023-01-13T18:31:37.764Z,97.19
2023-01-13T18:34:09.115Z,97.67
2023-01-13T18:36:39.098Z,97.64
2023-01-13T18:39:11.335Z,97.26
2023-01-13T18:42:02.219Z,97.20
2023-01-13T18:44:31.475Z,97.40
2023-01-13T18:47:00.811Z,97.33
2023-01-13T18:49:30.899Z,97.20
2023-01-13T18:52:00.278Z,96.81
2023-01-13T18:54:29.679Z,96.64
2023-01-13T18:57:02.038Z,96.69
2023-01-13T18:59:33.329Z,96.20
2023-01-13T19:02:11.293Z,96.03
2023-01-13T19:04:40.687Z,96.03
2023-01-13T19:07:12.847Z,95.83
2023-01-13T19:09:42.454Z,95.56
2023-01-13T19:12:13.171Z,95.53
2023-01-13T19:14:44.252Z,95.32
2023-01-13T19:17:17.253Z,95.59
2023-01-13T19:19:52.618Z,95.90
2023-01-13T19:22:27.417Z,95.72
2023-01-13T19:24:56.767Z,95.73
2023-01-13T19:27:27.703Z,95.54
2023-01-13T19:30:01.868Z,95.63
